createdAt,value
2019-02-20T00:02:43.170Z,12.77
2019-02-20T00:05:36.141Z,8.27
2019-02-20T00:07:11.337Z,6.97
2019-02-20T00:10:07.378Z,12.00
2019-02-20T00:11:30.731Z,10.90
2019-02-20T00:12:54.199Z,10.07
2019-02-20T00:15:46.373Z,5.83
2019-02-20T00:17:09.780Z,11.23
2019-02-20T00:20:08.605Z,11.53
2019-02-20T00:21:24.727Z,9.90
2019-02-20T00:22:40.655Z,7.53
2019-02-20T00:23:56.744Z,5.30
2019-02-20T00:25:12.926Z,8.47
2019-02-20T00:26:29.129Z,8.90
2019-02-20T00:27:45.698Z,14.27
2019-02-20T00:29:01.372Z,10.83
2019-02-20T00:30:17.811Z,8.07
2019-02-20T00:31:33.763Z,6.50
2019-02-20T00:32:49.838Z,9.10
2019-02-20T00:34:05.897Z,12.53
2019-02-20T00:39:51.211Z,9.23
2019-02-20T00:41:14.649Z,9.23
2019-02-20T00:42:38.027Z,7.60
2019-02-20T00:46:12.826Z,11.73
2019-02-20T00:47:55.181Z,12.33
2019-02-20T00:51:26.755Z,8.37
2019-02-20T00:53:09.210Z,11.40
2019-02-20T00:56:15.167Z,9.13
2019-02-20T01:01:03.625Z,9.67
2019-02-20T01:02:27.033Z,10.40
2019-02-20T01:05:33.040Z,12.53
2019-02-20T01:06:56.503Z,7.53
2019-02-20T01:08:19.884Z,14.13
2019-02-20T01:09:43.264Z,8.53
2019-02-20T01:11:06.678Z,13.07
2019-02-20T01:12:30.072Z,9.17
2019-02-20T01:15:35.900Z,10.23
2019-02-20T01:16:59.350Z,12.10
2019-02-20T01:18:22.713Z,8.60
2019-02-20T01:19:46.410Z,7.80
2019-02-20T01:21:09.903Z,12.10
2019-02-20T01:29:12.401Z,14.33
2019-02-20T01:30:35.840Z,11.83
2019-02-20T01:33:28.015Z,7.57
2019-02-20T01:38:16.497Z,7.17
2019-02-20T01:39:39.878Z,6.97
2019-02-20T01:42:45.824Z,13.30
2019-02-20T01:44:09.221Z,9.23
2019-02-20T01:45:32.690Z,8.67
2019-02-20T01:48:38.535Z,11.43
2019-02-20T01:50:01.913Z,5.73
2019-02-20T01:53:10.481Z,8.70
2019-02-20T01:56:15.374Z,11.50
2019-02-20T01:57:38.824Z,10.93
2019-02-20T02:00:25.811Z,11.40
2019-02-20T02:03:33.276Z,13.10
2019-02-20T02:06:39.155Z,9.87
2019-02-20T02:08:02.562Z,7.87
2019-02-20T02:11:08.378Z,10.63
2019-02-20T02:14:14.300Z,10.20
2019-02-20T02:15:37.642Z,13.47
2019-02-20T02:18:44.103Z,12.80
2019-02-20T02:21:42.823Z,9.17
2019-02-20T02:22:58.802Z,10.70
2019-02-20T02:24:14.966Z,14.80
2019-02-20T02:25:30.870Z,9.30
2019-02-20T02:26:46.856Z,11.67
2019-02-20T02:28:02.598Z,12.30
2019-02-20T02:29:18.675Z,10.23
2019-02-20T02:30:34.624Z,13.40
2019-02-20T02:31:50.561Z,14.87
2019-02-20T02:33:06.543Z,11.33
2019-02-20T02:34:22.619Z,15.53
2019-02-20T02:35:38.568Z,14.17
2019-02-20T02:36:54.688Z,14.07
2019-02-20T02:38:10.893Z,14.37
2019-02-20T02:39:27.150Z,11.17
2019-02-20T02:40:43.736Z,13.97
2019-02-20T02:41:59.324Z,13.77
2019-02-20T02:43:15.484Z,11.50
2019-02-20T02:44:31.416Z,20.03
2019-02-20T02:45:47.520Z,13.63
2019-02-20T02:47:03.411Z,14.40
2019-02-20T02:48:19.273Z,10.67
2019-02-20T02:49:35.201Z,12.97
2019-02-20T02:50:51.492Z,14.83
2019-02-20T02:52:07.649Z,16.47
2019-02-20T02:53:30.392Z,13.67
2019-02-20T02:54:41.339Z,16.73
2019-02-20T02:55:57.316Z,16.10
2019-02-20T02:57:13.136Z,16.63
2019-02-20T02:58:30.678Z,15.97
2019-02-20T02:59:46.692Z,14.47
2019-02-20T03:01:02.820Z,15.67
2019-02-20T03:02:19.200Z,16.40
2019-02-20T03:03:35.130Z,14.43
2019-02-20T03:04:51.479Z,14.60
2019-02-20T03:06:07.726Z,21.67
2019-02-20T03:07:23.584Z,17.07
2019-02-20T03:08:39.578Z,16.73
2019-02-20T03:09:55.374Z,17.27
2019-02-20T03:11:11.276Z,16.37
2019-02-20T03:12:27.339Z,13.87
2019-02-20T03:13:43.412Z,14.73
2019-02-20T03:14:59.804Z,15.90
2019-02-20T03:16:16.126Z,13.63
2019-02-20T03:17:32.405Z,15.27
2019-02-20T03:18:48.289Z,13.33
2019-02-20T03:20:04.312Z,14.47
2019-02-20T03:21:20.324Z,16.57
2019-02-20T03:22:36.661Z,22.87
2019-02-20T03:23:52.568Z,14.00
2019-02-20T03:25:08.711Z,16.07
2019-02-20T03:26:24.907Z,18.47
2019-02-20T03:27:40.701Z,12.27
2019-02-20T03:28:56.977Z,16.03
2019-02-20T03:30:12.814Z,17.43
2019-02-20T03:31:28.907Z,18.17
2019-02-20T03:32:45.206Z,17.50
2019-02-20T03:34:00.999Z,14.83
2019-02-20T03:35:16.755Z,14.93
2019-02-20T03:36:32.752Z,15.60
2019-02-20T03:37:48.678Z,13.80
2019-02-20T03:39:05.225Z,15.90
2019-02-20T03:40:21.584Z,20.33
2019-02-20T03:41:38.125Z,14.03
2019-02-20T03:42:54.031Z,17.17
2019-02-20T03:44:10.197Z,18.70
2019-02-20T03:45:26.197Z,17.30
2019-02-20T03:46:42.294Z,15.07
2019-02-20T03:47:58.258Z,14.90
2019-02-20T03:49:14.210Z,15.27
2019-02-20T03:51:30.537Z,18.30
2019-02-20T03:52:46.442Z,15.67
2019-02-20T03:54:02.844Z,13.10
2019-02-20T03:55:18.458Z,18.93
2019-02-20T03:56:34.791Z,13.20
2019-02-20T03:57:50.898Z,16.87
2019-02-20T03:59:06.797Z,14.97
2019-02-20T04:00:22.656Z,18.33
2019-02-20T04:01:38.912Z,16.13
2019-02-20T04:02:54.683Z,18.27
2019-02-20T04:04:10.573Z,15.63
2019-02-20T04:05:26.450Z,12.23
2019-02-20T04:06:42.417Z,14.27
2019-02-20T04:07:58.464Z,18.73
2019-02-20T04:09:14.267Z,18.00
2019-02-20T04:10:30.163Z,17.27
2019-02-20T04:11:46.028Z,16.13
2019-02-20T04:13:01.877Z,14.13
2019-02-20T04:14:17.836Z,15.10
2019-02-20T04:15:34.036Z,15.60
2019-02-20T04:16:49.898Z,13.07
2019-02-20T04:18:05.809Z,13.03
2019-02-20T04:19:21.685Z,16.93
2019-02-20T04:20:37.610Z,14.13
2019-02-20T04:21:53.498Z,14.13
2019-02-20T04:23:09.471Z,15.00
2019-02-20T04:24:25.305Z,17.33
2019-02-20T04:25:41.416Z,13.07
2019-02-20T04:26:57.427Z,14.73
2019-02-20T04:28:13.745Z,15.27
2019-02-20T04:29:29.868Z,17.23
2019-02-20T04:30:45.719Z,13.67
2019-02-20T04:32:01.952Z,17.07
2019-02-20T04:33:18.250Z,19.17
2019-02-20T04:34:34.096Z,13.57
2019-02-20T04:35:50.025Z,17.70
2019-02-20T04:37:06.095Z,18.00
2019-02-20T04:38:21.917Z,16.10
2019-02-20T04:39:38.217Z,14.33
2019-02-20T04:40:54.488Z,13.90
2019-02-20T04:42:10.905Z,15.70
2019-02-20T04:43:26.949Z,12.20
2019-02-20T04:44:42.817Z,16.63
2019-02-20T04:45:58.895Z,15.63
2019-02-20T04:47:17.120Z,15.13
2019-02-20T04:48:32.809Z,13.60
2019-02-20T04:49:48.804Z,14.70
2019-02-20T04:51:04.582Z,16.30
2019-02-20T04:52:09.327Z,16.10
2019-02-20T04:55:01.920Z,14.93
2019-02-20T04:56:25.430Z,16.17
2019-02-20T05:00:53.532Z,12.90
2019-02-20T05:01:57.845Z,19.23
2019-02-20T05:03:02.185Z,15.93
2019-02-20T05:04:08.793Z,16.20
2019-02-20T05:05:13.165Z,15.80
2019-02-20T05:06:17.501Z,18.57
2019-02-20T05:07:21.807Z,16.17
2019-02-20T05:08:26.248Z,12.70
2019-02-20T05:09:30.664Z,16.63
2019-02-20T05:10:35.019Z,19.77
2019-02-20T05:11:39.412Z,15.43
2019-02-20T05:12:43.795Z,16.23
2019-02-20T05:13:48.125Z,14.93
2019-02-20T05:14:52.449Z,15.67
2019-02-20T05:15:56.786Z,14.07
2019-02-20T05:17:01.197Z,14.87
2019-02-20T05:18:05.633Z,17.17
2019-02-20T05:19:10.037Z,15.90
2019-02-20T05:20:14.361Z,12.53
2019-02-20T05:21:18.699Z,15.60
2019-02-20T05:22:23.074Z,14.03
2019-02-20T05:23:27.404Z,14.67
2019-02-20T05:24:31.958Z,15.97
2019-02-20T05:25:36.352Z,15.43
2019-02-20T05:26:40.765Z,15.83
2019-02-20T05:27:45.107Z,14.37
2019-02-20T05:28:49.648Z,14.90
2019-02-20T05:29:53.984Z,17.27
2019-02-20T05:30:58.409Z,15.97
2019-02-20T05:32:02.766Z,16.40
2019-02-20T05:33:07.121Z,15.33
2019-02-20T05:34:11.678Z,15.03
2019-02-20T05:35:15.999Z,15.37
2019-02-20T05:36:20.406Z,14.53
2019-02-20T05:37:24.787Z,20.13
2019-02-20T05:38:29.094Z,18.17
2019-02-20T05:39:33.489Z,15.30
2019-02-20T05:40:37.803Z,17.13
2019-02-20T05:41:42.163Z,15.23
2019-02-20T05:42:48.281Z,17.07
2019-02-20T05:43:52.771Z,16.60
2019-02-20T05:44:57.079Z,18.17
2019-02-20T05:46:01.399Z,15.23
2019-02-20T05:47:05.718Z,22.67
2019-02-20T05:48:10.343Z,15.93
2019-02-20T05:49:14.788Z,14.80
2019-02-20T05:50:19.135Z,17.73
2019-02-20T05:51:23.524Z,19.50
2019-02-20T05:52:27.900Z,20.67
2019-02-20T05:53:32.391Z,16.80
2019-02-20T05:54:36.791Z,23.47
2019-02-20T05:55:41.469Z,18.03
2019-02-20T05:56:45.922Z,22.50
2019-02-20T05:57:50.560Z,18.33
2019-02-20T05:58:54.894Z,19.00
2019-02-20T05:59:59.408Z,23.47
2019-02-20T06:01:03.814Z,19.93
2019-02-20T06:02:08.606Z,18.17
2019-02-20T06:03:13.207Z,22.13
2019-02-20T06:04:17.568Z,22.47
2019-02-20T06:05:21.964Z,20.40
2019-02-20T06:06:26.391Z,16.97
2019-02-20T06:07:30.779Z,21.83
2019-02-20T06:08:35.370Z,19.93
2019-02-20T06:09:39.869Z,19.33
2019-02-20T06:10:44.280Z,16.93
2019-02-20T06:11:48.649Z,20.57
2019-02-20T06:12:53.307Z,15.43
2019-02-20T06:13:57.670Z,20.07
2019-02-20T06:15:02.204Z,20.67
2019-02-20T06:16:07.156Z,18.33
2019-02-20T06:17:11.546Z,20.20
2019-02-20T06:18:15.929Z,19.17
2019-02-20T06:19:20.380Z,20.87
2019-02-20T06:20:24.933Z,23.43
2019-02-20T06:21:29.420Z,16.07
2019-02-20T06:22:34.219Z,18.27
2019-02-20T06:23:38.786Z,22.70
2019-02-20T06:24:44.367Z,21.27
2019-02-20T06:25:48.922Z,17.07
2019-02-20T06:26:53.721Z,21.40
2019-02-20T06:27:58.163Z,19.87
2019-02-20T06:29:02.536Z,19.17
2019-02-20T06:30:07.660Z,19.67
2019-02-20T06:31:12.250Z,20.43
2019-02-20T06:32:16.746Z,20.53
2019-02-20T06:33:21.120Z,16.50
2019-02-20T06:34:25.527Z,18.67
2019-02-20T06:35:29.889Z,20.13
2019-02-20T06:36:37.151Z,22.70
2019-02-20T06:37:41.555Z,22.60
2019-02-20T06:38:45.959Z,22.17
2019-02-20T06:39:50.385Z,22.07
2019-02-20T06:40:54.798Z,20.33
2019-02-20T06:41:59.199Z,18.97
2019-02-20T06:43:03.646Z,22.93
2019-02-20T06:44:08.394Z,22.90
2019-02-20T06:45:12.904Z,20.90
2019-02-20T06:46:17.339Z,22.37
2019-02-20T06:47:21.821Z,20.00
2019-02-20T06:48:26.183Z,22.47
2019-02-20T06:49:30.558Z,20.00
2019-02-20T06:50:35.505Z,25.73
2019-02-20T06:51:40.094Z,19.43
2019-02-20T06:52:44.486Z,25.33
2019-02-20T06:53:48.989Z,18.03
2019-02-20T06:54:54.364Z,20.87
2019-02-20T06:55:58.805Z,24.37
2019-02-20T06:57:03.203Z,19.40
2019-02-20T06:58:07.966Z,21.00
2019-02-20T06:59:12.462Z,17.37
2019-02-20T07:00:16.932Z,21.07
2019-02-20T07:01:21.328Z,22.13
2019-02-20T07:02:25.714Z,19.63
2019-02-20T07:03:30.046Z,19.43
2019-02-20T07:04:36.711Z,17.13
2019-02-20T07:05:43.181Z,18.43
2019-02-20T07:06:54.365Z,19.47
2019-02-20T07:08:38.685Z,23.60
2019-02-20T07:10:20.082Z,22.83
2019-02-20T07:12:14.881Z,17.40
2019-02-20T07:14:06.221Z,22.27
2019-02-20T07:15:33.694Z,19.13
2019-02-20T07:17:13.646Z,17.60
2019-02-20T07:18:52.093Z,19.30
2019-02-20T07:20:49.653Z,15.87
2019-02-20T07:22:53.319Z,21.10
2019-02-20T07:24:14.524Z,19.77
2019-02-20T07:26:05.960Z,20.03
2019-02-20T07:28:03.240Z,23.90
2019-02-20T07:29:58.994Z,20.23
2019-02-20T07:31:03.386Z,20.17
2019-02-20T07:32:08.195Z,14.87
2019-02-20T07:33:15.739Z,20.43
2019-02-20T07:34:20.105Z,15.73
2019-02-20T07:35:24.503Z,21.07
2019-02-20T07:36:28.941Z,18.80
2019-02-20T07:37:33.336Z,19.93
2019-02-20T07:38:37.805Z,15.87
2019-02-20T07:39:42.557Z,20.77
2019-02-20T07:40:46.881Z,18.83
2019-02-20T07:41:51.267Z,24.20
2019-02-20T07:42:55.917Z,17.43
2019-02-20T07:44:00.346Z,17.50
2019-02-20T07:45:05.168Z,16.43
2019-02-20T07:46:09.695Z,18.53
2019-02-20T07:47:14.189Z,19.43
2019-02-20T07:48:19.779Z,16.07
2019-02-20T07:49:24.133Z,16.33
2019-02-20T07:50:28.515Z,14.27
2019-02-20T07:51:32.901Z,20.53
2019-02-20T07:52:40.048Z,16.87
2019-02-20T07:53:44.428Z,19.43
2019-02-20T07:54:48.803Z,15.40
2019-02-20T07:55:53.172Z,18.67
2019-02-20T07:56:57.537Z,18.30
2019-02-20T07:58:01.987Z,21.80
2019-02-20T07:59:06.368Z,17.57
2019-02-20T08:00:12.641Z,15.90
2019-02-20T08:01:17.049Z,21.83
2019-02-20T08:02:21.405Z,19.03
2019-02-20T08:03:25.767Z,16.37
2019-02-20T08:04:30.117Z,19.00
2019-02-20T08:05:34.464Z,19.70
2019-02-20T08:06:38.827Z,14.70
2019-02-20T08:07:43.453Z,17.23
2019-02-20T08:08:47.780Z,20.43
2019-02-20T08:09:52.136Z,18.60
2019-02-20T08:10:56.824Z,19.10
2019-02-20T08:12:01.308Z,19.30
2019-02-20T08:13:05.855Z,16.07
2019-02-20T08:14:13.046Z,19.23
2019-02-20T08:15:17.409Z,16.07
2019-02-20T08:16:21.918Z,20.27
2019-02-20T08:17:26.301Z,17.90
2019-02-20T08:18:30.730Z,16.83
2019-02-20T08:19:35.127Z,15.47
2019-02-20T08:20:39.561Z,16.23
2019-02-20T08:21:44.061Z,13.80
2019-02-20T08:22:48.400Z,16.10
2019-02-20T08:23:52.851Z,18.83
2019-02-20T08:24:58.380Z,14.33
2019-02-20T08:26:02.787Z,18.57
2019-02-20T08:27:07.184Z,15.40
2019-02-20T08:28:11.910Z,12.70
2019-02-20T08:29:16.328Z,14.50
2019-02-20T08:30:20.745Z,17.57
2019-02-20T08:31:25.120Z,15.77
2019-02-20T08:32:29.542Z,15.27
2019-02-20T08:33:33.899Z,15.07
2019-02-20T08:34:38.570Z,16.03
2019-02-20T08:35:43.244Z,11.97
2019-02-20T08:36:47.658Z,13.72
2019-02-20T08:37:52.004Z,15.57
2019-02-20T08:38:59.188Z,16.93
2019-02-20T08:40:03.609Z,16.37
2019-02-20T08:41:08.051Z,14.93
2019-02-20T08:42:15.313Z,20.00
2019-02-20T08:43:19.681Z,21.13
2019-02-20T08:44:24.145Z,16.70
2019-02-20T08:45:28.705Z,15.50
2019-02-20T08:46:33.118Z,16.37
2019-02-20T08:47:37.463Z,16.70
2019-02-20T08:48:41.921Z,14.57
2019-02-20T08:49:46.268Z,14.80
2019-02-20T08:50:50.652Z,17.83
2019-02-20T08:51:55.036Z,15.37
2019-02-20T08:52:59.374Z,11.80
2019-02-20T08:54:04.529Z,13.43
2019-02-20T08:55:09.490Z,14.13
2019-02-20T08:56:17.106Z,15.68
2019-02-20T08:57:21.498Z,13.40
2019-02-20T08:58:25.915Z,16.90
2019-02-20T08:59:30.312Z,13.20
2019-02-20T09:00:36.113Z,17.40
2019-02-20T09:01:40.516Z,13.98
2019-02-20T09:02:44.925Z,15.45
2019-02-20T09:03:49.319Z,12.77
2019-02-20T09:04:54.836Z,13.28
2019-02-20T09:05:59.295Z,13.10
2019-02-20T09:07:03.634Z,12.80
2019-02-20T09:08:08.060Z,15.27
2019-02-20T09:09:12.745Z,13.27
2019-02-20T09:10:17.487Z,13.18
2019-02-20T09:11:22.050Z,14.35
2019-02-20T09:12:26.507Z,15.43
2019-02-20T09:13:30.892Z,15.23
2019-02-20T09:14:35.323Z,12.77
2019-02-20T09:15:39.709Z,10.38
2019-02-20T09:16:44.151Z,15.83
2019-02-20T09:17:48.650Z,15.65
2019-02-20T09:18:53.079Z,13.25
2019-02-20T09:19:57.472Z,14.40
2019-02-20T09:21:01.946Z,13.98
2019-02-20T09:22:06.332Z,16.95
2019-02-20T09:23:10.748Z,11.50
2019-02-20T09:24:15.244Z,15.23
2019-02-20T09:25:20.247Z,13.20
2019-02-20T09:26:24.716Z,10.28
2019-02-20T09:27:29.176Z,16.15
2019-02-20T09:28:33.592Z,11.35
2019-02-20T09:29:38.049Z,14.23
2019-02-20T09:30:42.527Z,12.18
2019-02-20T09:31:47.067Z,11.33
2019-02-20T09:32:51.445Z,17.95
2019-02-20T09:33:56.738Z,13.13
2019-02-20T09:35:01.199Z,9.75
2019-02-20T09:36:05.699Z,12.23
2019-02-20T09:37:10.129Z,12.40
2019-02-20T09:38:14.929Z,16.90
2019-02-20T09:39:30.591Z,11.20
2019-02-20T09:40:36.681Z,12.27
2019-02-20T09:41:41.283Z,11.93
2019-02-20T09:42:47.031Z,12.33
2019-02-20T09:43:51.417Z,13.70
2019-02-20T09:44:55.753Z,12.97
2019-02-20T09:46:00.156Z,15.32
2019-02-20T09:47:04.517Z,14.33
2019-02-20T09:48:08.932Z,11.97
2019-02-20T09:49:15.956Z,10.55
2019-02-20T09:50:20.408Z,12.80
2019-02-20T09:51:24.813Z,12.77
2019-02-20T09:52:29.236Z,10.70
2019-02-20T09:53:33.649Z,14.70
2019-02-20T09:54:38.849Z,15.13
2019-02-20T09:55:51.300Z,13.20
2019-02-20T09:56:49.590Z,14.90
2019-02-20T09:57:54.139Z,14.53
2019-02-20T09:59:02.285Z,18.97
2019-02-20T10:00:09.498Z,11.73
2019-02-20T10:01:17.047Z,12.75
2019-02-20T10:02:21.563Z,13.13
2019-02-20T10:03:26.176Z,10.80
2019-02-20T10:04:30.680Z,10.28
2019-02-20T10:05:35.113Z,10.65
2019-02-20T10:06:39.472Z,9.78
2019-02-20T10:07:43.966Z,16.73
2019-02-20T10:08:48.505Z,12.35
2019-02-20T10:09:52.953Z,14.18
2019-02-20T10:10:57.387Z,13.45
2019-02-20T10:12:01.820Z,11.20
2019-02-20T10:13:06.221Z,10.53
2019-02-20T10:14:10.676Z,12.75
2019-02-20T10:15:15.200Z,13.43
2019-02-20T10:16:19.618Z,13.45
2019-02-20T10:17:24.061Z,15.50
2019-02-20T10:18:28.560Z,15.30
2019-02-20T10:19:33.014Z,11.10
2019-02-20T10:20:39.808Z,9.40
2019-02-20T10:21:44.493Z,14.83
2019-02-20T10:22:49.021Z,14.68
2019-02-20T10:23:53.546Z,11.25
2019-02-20T10:24:59.218Z,11.85
2019-02-20T10:26:03.755Z,12.95
2019-02-20T10:27:08.168Z,11.38
2019-02-20T10:28:12.991Z,10.78
2019-02-20T10:29:17.745Z,12.05
2019-02-20T10:30:22.217Z,10.82
2019-02-20T10:31:26.601Z,13.90
2019-02-20T10:32:31.012Z,13.80
2019-02-20T10:33:35.418Z,12.95
2019-02-20T10:34:39.802Z,15.38
2019-02-20T10:35:44.291Z,11.65
2019-02-20T10:36:48.730Z,13.10
2019-02-20T10:37:53.124Z,14.20
2019-02-20T10:38:57.620Z,11.48
2019-02-20T10:40:02.105Z,12.13
2019-02-20T10:41:06.574Z,11.33
2019-02-20T10:42:11.095Z,11.48
2019-02-20T10:43:15.517Z,12.43
2019-02-20T10:44:19.915Z,14.30
2019-02-20T10:45:24.280Z,16.32
2019-02-20T10:46:28.812Z,12.30
2019-02-20T10:47:33.313Z,15.15
2019-02-20T10:48:38.181Z,12.40
2019-02-20T10:49:42.663Z,12.03
2019-02-20T10:50:47.199Z,14.95
2019-02-20T10:51:51.625Z,10.68
2019-02-20T10:52:56.015Z,13.93
2019-02-20T10:54:00.471Z,10.28
2019-02-20T10:55:05.132Z,10.32
2019-02-20T10:56:09.891Z,11.88
2019-02-20T10:57:14.614Z,13.43
2019-02-20T10:58:19.125Z,11.53
2019-02-20T10:59:23.537Z,14.30
2019-02-20T11:00:29.214Z,15.93
2019-02-20T11:01:33.709Z,15.65
2019-02-20T11:02:38.248Z,11.83
2019-02-20T11:03:42.678Z,10.80
2019-02-20T11:04:47.122Z,13.30
2019-02-20T11:05:51.619Z,11.70
2019-02-20T11:06:56.008Z,9.85
2019-02-20T11:08:00.434Z,11.43
2019-02-20T11:09:05.765Z,10.63
2019-02-20T11:10:10.589Z,12.23
2019-02-20T11:11:15.082Z,11.65
2019-02-20T11:12:19.447Z,11.95
2019-02-20T11:13:24.062Z,12.82
2019-02-20T11:14:28.573Z,10.35
2019-02-20T11:15:33.048Z,12.13
2019-02-20T11:16:38.166Z,11.90
2019-02-20T11:17:42.605Z,13.55
2019-02-20T11:18:46.981Z,14.50
2019-02-20T11:19:51.412Z,10.58
2019-02-20T11:20:55.816Z,14.20
2019-02-20T11:22:00.253Z,10.08
2019-02-20T11:23:04.591Z,15.45
2019-02-20T11:24:09.017Z,14.75
2019-02-20T11:25:13.647Z,13.38
2019-02-20T11:26:18.797Z,12.73
2019-02-20T11:27:23.217Z,13.08
2019-02-20T11:28:27.602Z,12.05
2019-02-20T11:29:32.132Z,13.78
2019-02-20T11:30:37.571Z,11.85
2019-02-20T11:31:41.952Z,10.70
2019-02-20T11:32:46.362Z,11.57
2019-02-20T11:33:50.802Z,12.68
2019-02-20T11:34:55.205Z,12.00
2019-02-20T11:35:59.767Z,17.32
2019-02-20T11:37:04.572Z,13.62
2019-02-20T11:38:08.928Z,14.10
2019-02-20T11:39:13.466Z,15.38
2019-02-20T11:40:18.365Z,16.23
2019-02-20T11:41:22.904Z,11.12
2019-02-20T11:42:27.333Z,13.88
2019-02-20T11:43:31.713Z,17.70
2019-02-20T11:44:36.908Z,13.40
2019-02-20T11:45:41.412Z,14.15
2019-02-20T11:46:45.897Z,14.23
2019-02-20T11:47:50.480Z,11.97
2019-02-20T11:48:54.963Z,17.27
2019-02-20T11:49:59.525Z,17.60
2019-02-20T11:52:25.701Z,13.43
2019-02-20T11:53:36.988Z,16.67
2019-02-20T11:54:36.365Z,15.30
2019-02-20T11:55:40.726Z,16.30
2019-02-20T11:56:45.115Z,16.45
2019-02-20T11:57:49.531Z,15.00
2019-02-20T11:58:53.919Z,15.32
2019-02-20T11:59:58.316Z,14.63
2019-02-20T12:01:02.704Z,16.15
2019-02-20T12:02:07.196Z,15.40
2019-02-20T12:03:11.585Z,15.58
2019-02-20T12:04:16.191Z,17.15
2019-02-20T12:05:20.564Z,12.25
2019-02-20T12:06:24.970Z,16.02
2019-02-20T12:07:29.385Z,16.82
2019-02-20T12:08:33.821Z,17.27
2019-02-20T12:09:38.166Z,18.12
2019-02-20T12:10:43.004Z,15.00
2019-02-20T12:11:47.510Z,15.53
2019-02-20T12:12:51.876Z,14.03
2019-02-20T12:13:56.329Z,18.30
2019-02-20T12:15:00.697Z,16.35
2019-02-20T12:16:05.032Z,13.85
2019-02-20T12:17:09.503Z,16.73
2019-02-20T12:18:17.594Z,17.17
2019-02-20T12:19:23.537Z,17.27
2019-02-20T12:20:28.083Z,17.87
2019-02-20T12:21:32.427Z,13.83
2019-02-20T12:22:39.544Z,12.73
2019-02-20T12:23:43.877Z,14.25
2019-02-20T12:24:48.214Z,15.03
2019-02-20T12:25:54.342Z,15.35
2019-02-20T12:26:58.809Z,14.40
2019-02-20T12:28:03.231Z,14.53
2019-02-20T12:29:07.552Z,18.65
2019-02-20T12:30:12.218Z,14.80
2019-02-20T12:31:16.576Z,15.88
2019-02-20T12:32:20.962Z,15.25
2019-02-20T12:33:25.343Z,17.07
2019-02-20T12:34:29.785Z,16.62
2019-02-20T12:35:34.113Z,16.75
2019-02-20T12:36:38.888Z,20.35
2019-02-20T12:37:43.277Z,15.20
2019-02-20T12:38:47.725Z,14.85
2019-02-20T12:39:52.136Z,15.38
2019-02-20T12:40:56.520Z,14.47
2019-02-20T12:42:00.917Z,16.87
2019-02-20T12:43:05.467Z,18.25
2019-02-20T12:44:09.933Z,17.00
2019-02-20T12:45:14.479Z,21.40
2019-02-20T12:46:18.882Z,12.95
2019-02-20T12:47:23.268Z,17.12
2019-02-20T12:48:27.642Z,16.70
2019-02-20T12:49:32.050Z,19.32
2019-02-20T12:50:37.952Z,18.37
2019-02-20T12:51:42.313Z,18.70
2019-02-20T12:52:46.719Z,12.18
2019-02-20T12:53:51.092Z,17.45
2019-02-20T12:54:55.487Z,11.80
2019-02-20T12:55:59.812Z,12.80
2019-02-20T12:57:04.484Z,17.95
2019-02-20T12:58:08.876Z,13.90
2019-02-20T12:59:13.390Z,12.90
2019-02-20T13:00:18.845Z,13.62
2019-02-20T13:01:23.229Z,11.55
2019-02-20T13:02:27.592Z,11.85
2019-02-20T13:03:31.972Z,17.77
2019-02-20T13:04:36.779Z,17.25
2019-02-20T13:05:42.486Z,12.03
2019-02-20T13:06:47.060Z,13.10
2019-02-20T13:07:51.477Z,13.20
2019-02-20T13:08:55.955Z,11.97
2019-02-20T13:10:00.398Z,12.88
2019-02-20T13:11:04.872Z,12.75
2019-02-20T13:12:09.275Z,14.87
2019-02-20T13:13:13.818Z,12.35
2019-02-20T13:14:18.769Z,16.17
2019-02-20T13:15:23.167Z,13.60
2019-02-20T13:16:27.792Z,12.93
2019-02-20T13:17:32.152Z,12.78
2019-02-20T13:18:36.908Z,17.57
2019-02-20T13:19:41.355Z,10.55
2019-02-20T13:20:45.771Z,15.95
2019-02-20T13:21:50.159Z,13.68
2019-02-20T13:22:54.565Z,15.35
2019-02-20T13:23:59.179Z,13.70
2019-02-20T13:25:04.144Z,14.83
2019-02-20T13:26:08.754Z,15.78
2019-02-20T13:27:22.507Z,15.88
2019-02-20T13:28:20.812Z,17.17
2019-02-20T13:29:25.387Z,16.15
2019-02-20T13:30:29.888Z,14.43
2019-02-20T13:31:34.296Z,17.10
2019-02-20T13:32:38.638Z,11.80
2019-02-20T13:33:43.077Z,14.20
2019-02-20T13:34:47.486Z,14.03
2019-02-20T13:35:51.845Z,13.08
2019-02-20T13:36:56.209Z,14.63
2019-02-20T13:38:00.566Z,14.15
2019-02-20T13:39:05.874Z,14.58
2019-02-20T13:40:12.926Z,13.78
2019-02-20T13:41:17.356Z,11.03
2019-02-20T13:42:22.022Z,15.13
2019-02-20T13:43:26.489Z,12.90
2019-02-20T13:44:30.941Z,14.60
2019-02-20T13:45:35.519Z,13.98
2019-02-20T13:46:40.297Z,14.18
2019-02-20T13:47:44.741Z,15.48
2019-02-20T13:48:49.219Z,13.13
2019-02-20T13:49:53.714Z,16.65
2019-02-20T13:50:58.213Z,15.95
2019-02-20T13:52:02.678Z,15.80
2019-02-20T13:53:07.126Z,15.45
2019-02-20T13:54:11.652Z,15.50
2019-02-20T13:55:16.150Z,16.12
2019-02-20T13:56:20.819Z,16.48
2019-02-20T13:57:25.336Z,13.00
2019-02-20T13:58:29.733Z,17.27
2019-02-20T13:59:34.229Z,12.28
2019-02-20T14:00:38.781Z,15.00
2019-02-20T14:01:43.303Z,13.68
2019-02-20T14:02:48.724Z,15.98
2019-02-20T14:03:53.347Z,16.73
2019-02-20T14:04:57.822Z,19.42
2019-02-20T14:06:02.243Z,14.03
2019-02-20T14:07:06.687Z,15.58
2019-02-20T14:08:11.325Z,14.73
2019-02-20T14:09:15.805Z,17.62
2019-02-20T14:10:20.431Z,13.65
2019-02-20T14:11:24.895Z,15.60
2019-02-20T14:12:29.357Z,17.65
2019-02-20T14:13:33.957Z,15.38
2019-02-20T14:14:38.436Z,13.03
2019-02-20T14:15:43.025Z,13.62
2019-02-20T14:16:47.459Z,11.80
2019-02-20T14:17:51.994Z,13.55
2019-02-20T14:18:56.495Z,15.13
2019-02-20T14:20:01.011Z,12.25
2019-02-20T14:21:05.500Z,11.73
2019-02-20T14:22:09.980Z,13.72
2019-02-20T14:23:14.476Z,13.48
2019-02-20T14:24:19.035Z,12.00
2019-02-20T14:25:23.456Z,15.10
2019-02-20T14:26:27.888Z,12.07
2019-02-20T14:27:32.351Z,12.33
2019-02-20T14:28:36.925Z,13.78
2019-02-20T14:29:41.336Z,13.93
2019-02-20T14:30:45.801Z,17.23
2019-02-20T14:31:50.340Z,10.72
2019-02-20T14:32:54.890Z,11.38
2019-02-20T14:33:59.524Z,14.15
2019-02-20T14:35:04.414Z,11.40
2019-02-20T14:36:08.845Z,12.13
2019-02-20T14:37:13.380Z,11.65
2019-02-20T14:38:17.879Z,10.40
2019-02-20T14:39:22.386Z,11.40
2019-02-20T14:40:26.784Z,12.23
2019-02-20T14:41:32.217Z,13.78
2019-02-20T14:42:38.991Z,11.28
2019-02-20T14:43:43.388Z,10.25
2019-02-20T14:44:47.960Z,11.30
2019-02-20T14:45:52.460Z,9.85
2019-02-20T14:46:56.891Z,11.90
2019-02-20T14:48:01.371Z,11.03
2019-02-20T14:49:05.837Z,10.65
2019-02-20T14:50:10.722Z,11.12
2019-02-20T14:51:15.358Z,10.93
2019-02-20T14:52:20.203Z,10.35
2019-02-20T14:53:24.661Z,9.50
2019-02-20T14:54:29.089Z,10.85
2019-02-20T14:55:33.556Z,12.75
2019-02-20T14:56:38.189Z,12.15
2019-02-20T14:57:42.659Z,11.53
2019-02-20T14:58:48.873Z,9.05
2019-02-20T14:59:53.445Z,12.40
2019-02-20T15:00:57.949Z,10.32
2019-02-20T15:02:02.403Z,12.77
2019-02-20T15:03:06.918Z,9.48
2019-02-20T15:04:11.319Z,7.80
2019-02-20T15:05:15.768Z,12.05
2019-02-20T15:06:20.667Z,11.20
2019-02-20T15:07:25.217Z,9.00
2019-02-20T15:08:29.914Z,7.50
2019-02-20T15:09:34.414Z,10.08
2019-02-20T15:10:39.090Z,10.78
2019-02-20T15:11:43.557Z,9.08
2019-02-20T15:12:47.900Z,9.18
2019-02-20T15:13:54.228Z,10.32
2019-02-20T15:14:58.748Z,10.10
2019-02-20T15:16:03.186Z,9.00
2019-02-20T15:17:07.987Z,8.10
2019-02-20T15:18:12.845Z,8.33
2019-02-20T15:19:17.324Z,8.28
2019-02-20T15:20:22.047Z,8.78
2019-02-20T15:21:26.515Z,9.58
2019-02-20T15:22:30.959Z,8.85
2019-02-20T15:23:35.491Z,9.35
2019-02-20T15:24:40.321Z,8.55
2019-02-20T15:25:45.082Z,9.25
2019-02-20T15:26:49.520Z,8.38
2019-02-20T15:27:53.916Z,9.80
2019-02-20T15:28:58.462Z,9.78
2019-02-20T15:30:04.326Z,9.58
2019-02-20T15:31:08.821Z,13.30
2019-02-20T15:32:13.225Z,11.45
2019-02-20T15:33:17.565Z,9.38
2019-02-20T15:34:22.315Z,7.30
2019-02-20T15:35:26.740Z,8.00
2019-02-20T15:36:31.192Z,12.43
2019-02-20T15:37:35.609Z,9.05
2019-02-20T15:38:42.259Z,10.63
2019-02-20T15:39:46.485Z,9.68
2019-02-20T15:40:50.922Z,9.25
2019-02-20T15:41:55.740Z,12.18
2019-02-20T15:43:01.570Z,9.80
2019-02-20T15:44:06.078Z,10.78
2019-02-20T15:45:10.990Z,9.73
2019-02-20T15:46:16.668Z,8.70
2019-02-20T15:47:23.234Z,9.80
2019-02-20T15:48:27.652Z,9.20
2019-02-20T15:49:33.276Z,7.58